sensor_id;sensor_type;location;lat;lon;timestamp;P1;durP1;ratioP1;P2;durP2;ratioP2
4601;SDS011;2313;48.552;9.370;2024-02-14T00:00:37;5.23;;;3.30;;
4601;SDS011;2313;48.552;9.370;2024-02-14T00:03:02;8.13;;;4.03;;
4601;SDS011;2313;48.552;9.370;2024-02-14T00:05:28;6.03;;;3.17;;
4601;SDS011;2313;48.552;9.370;2024-02-14T00:07:54;11.17;;;3.60;;
4601;SDS011;2313;48.552;9.370;2024-02-14T00:10:19;6.53;;;3.53;;
4601;SDS011;2313;48.552;9.370;2024-02-14T00:12:45;9.60;;;3.97;;
4601;SDS011;2313;48.552;9.370;2024-02-14T00:15:11;13.82;;;4.90;;
4601;SDS011;2313;48.552;9.370;2024-02-14T00:17:37;6.33;;;3.93;;
4601;SDS011;2313;48.552;9.370;2024-02-14T00:20:03;6.93;;;4.10;;
4601;SDS011;2313;48.552;9.370;2024-02-14T00:22:29;11.43;;;5.27;;
4601;SDS011;2313;48.552;9.370;2024-02-14T00:24:55;5.50;;;3.90;;
4601;SDS011;2313;48.552;9.370;2024-02-14T00:27:21;8.83;;;5.23;;
4601;SDS011;2313;48.552;9.370;2024-02-14T00:29:47;7.97;;;4.97;;
4601;SDS011;2313;48.552;9.370;2024-02-14T00:32:13;8.10;;;4.70;;
4601;SDS011;2313;48.552;9.370;2024-02-14T00:34:39;6.37;;;4.60;;
4601;SDS011;2313;48.552;9.370;2024-02-14T00:37:04;8.00;;;5.00;;
4601;SDS011;2313;48.552;9.370;2024-02-14T00:39:30;6.60;;;4.77;;
4601;SDS011;2313;48.552;9.370;2024-02-14T00:41:55;8.17;;;4.93;;
4601;SDS011;2313;48.552;9.370;2024-02-14T00:44:21;8.10;;;5.03;;
4601;SDS011;2313;48.552;9.370;2024-02-14T00:46:47;10.40;;;4.67;;
4601;SDS011;2313;48.552;9.370;2024-02-14T00:49:13;9.63;;;4.77;;
4601;SDS011;2313;48.552;9.370;2024-02-14T00:51:39;8.13;;;4.47;;
4601;SDS011;2313;48.552;9.370;2024-02-14T00:54:05;4.87;;;2.60;;
4601;SDS011;2313;48.552;9.370;2024-02-14T00:56:34;4.13;;;1.40;;
4601;SDS011;2313;48.552;9.370;2024-02-14T00:59:00;5.40;;;1.80;;
4601;SDS011;2313;48.552;9.370;2024-02-14T01:01:25;2.67;;;1.30;;
4601;SDS011;2313;48.552;9.370;2024-02-14T01:03:51;2.07;;;1.50;;
4601;SDS011;2313;48.552;9.370;2024-02-14T01:06:17;2.20;;;1.07;;
4601;SDS011;2313;48.552;9.370;2024-02-14T01:08:43;7.03;;;1.40;;
4601;SDS011;2313;48.552;9.370;2024-02-14T01:11:09;4.53;;;1.43;;
4601;SDS011;2313;48.552;9.370;2024-02-14T01:13:35;2.70;;;1.20;;
4601;SDS011;2313;48.552;9.370;2024-02-14T01:16:02;6.57;;;1.33;;
4601;SDS011;2313;48.552;9.370;2024-02-14T01:18:29;4.60;;;1.20;;
4601;SDS011;2313;48.552;9.370;2024-02-14T01:20:55;2.73;;;1.53;;
4601;SDS011;2313;48.552;9.370;2024-02-14T01:23:23;3.70;;;1.30;;
4601;SDS011;2313;48.552;9.370;2024-02-14T01:25:49;2.80;;;1.60;;
4601;SDS011;2313;48.552;9.370;2024-02-14T01:28:15;2.97;;;1.70;;
4601;SDS011;2313;48.552;9.370;2024-02-14T01:30:42;4.53;;;1.57;;
4601;SDS011;2313;48.552;9.370;2024-02-14T01:33:08;2.03;;;1.73;;
4601;SDS011;2313;48.552;9.370;2024-02-14T01:35:33;2.50;;;1.10;;
4601;SDS011;2313;48.552;9.370;2024-02-14T01:37:59;3.10;;;1.20;;
4601;SDS011;2313;48.552;9.370;2024-02-14T01:40:25;2.87;;;1.03;;
4601;SDS011;2313;48.552;9.370;2024-02-14T01:42:51;4.60;;;1.40;;
4601;SDS011;2313;48.552;9.370;2024-02-14T01:45:17;5.03;;;1.40;;
4601;SDS011;2313;48.552;9.370;2024-02-14T01:47:43;5.43;;;1.00;;
4601;SDS011;2313;48.552;9.370;2024-02-14T01:50:09;1.20;;;1.03;;
4601;SDS011;2313;48.552;9.370;2024-02-14T01:52:36;8.70;;;1.70;;
4601;SDS011;2313;48.552;9.370;2024-02-14T01:55:04;8.10;;;1.80;;
4601;SDS011;2313;48.552;9.370;2024-02-14T01:57:30;3.63;;;1.23;;
4601;SDS011;2313;48.552;9.370;2024-02-14T01:59:57;2.20;;;0.80;;
4601;SDS011;2313;48.552;9.370;2024-02-14T02:02:25;6.20;;;1.47;;
4601;SDS011;2313;48.552;9.370;2024-02-14T02:04:51;5.40;;;2.47;;
4601;SDS011;2313;48.552;9.370;2024-02-14T02:07:17;7.60;;;3.63;;
4601;SDS011;2313;48.552;9.370;2024-02-14T02:09:44;3.33;;;1.77;;
4601;SDS011;2313;48.552;9.370;2024-02-14T02:12:11;1.83;;;1.23;;
4601;SDS011;2313;48.552;9.370;2024-02-14T02:14:36;5.63;;;3.07;;
4601;SDS011;2313;48.552;9.370;2024-02-14T02:17:02;3.83;;;3.03;;
4601;SDS011;2313;48.552;9.370;2024-02-14T02:19:32;8.93;;;3.30;;
4601;SDS011;2313;48.552;9.370;2024-02-14T02:21:59;7.13;;;4.00;;
4601;SDS011;2313;48.552;9.370;2024-02-14T02:24:25;4.40;;;3.37;;
4601;SDS011;2313;48.552;9.370;2024-02-14T02:26:51;5.27;;;3.43;;
4601;SDS011;2313;48.552;9.370;2024-02-14T02:29:17;4.23;;;3.43;;
4601;SDS011;2313;48.552;9.370;2024-02-14T02:31:44;5.07;;;3.30;;
4601;SDS011;2313;48.552;9.370;2024-02-14T02:34:11;7.70;;;4.33;;
4601;SDS011;2313;48.552;9.370;2024-02-14T02:36:37;10.03;;;5.43;;
4601;SDS011;2313;48.552;9.370;2024-02-14T02:39:04;6.10;;;4.30;;
4601;SDS011;2313;48.552;9.370;2024-02-14T02:41:32;7.67;;;4.10;;
4601;SDS011;2313;48.552;9.370;2024-02-14T02:43:58;7.27;;;3.50;;
4601;SDS011;2313;48.552;9.370;2024-02-14T02:46:24;8.47;;;3.90;;
4601;SDS011;2313;48.552;9.370;2024-02-14T02:48:51;7.10;;;4.30;;
4601;SDS011;2313;48.552;9.370;2024-02-14T02:51:20;7.10;;;3.93;;
4601;SDS011;2313;48.552;9.370;2024-02-14T02:53:46;4.83;;;3.33;;
4601;SDS011;2313;48.552;9.370;2024-02-14T02:56:12;6.93;;;3.20;;
4601;SDS011;2313;48.552;9.370;2024-02-14T02:58:39;7.90;;;2.40;;
4601;SDS011;2313;48.552;9.370;2024-02-14T03:01:07;3.57;;;1.73;;
4601;SDS011;2313;48.552;9.370;2024-02-14T03:03:34;4.40;;;1.57;;
4601;SDS011;2313;48.552;9.370;2024-02-14T03:06:01;7.60;;;3.07;;
4601;SDS011;2313;48.552;9.370;2024-02-14T03:08:28;5.17;;;2.80;;
4601;SDS011;2313;48.552;9.370;2024-02-14T03:10:55;5.50;;;3.10;;
4601;SDS011;2313;48.552;9.370;2024-02-14T03:13:24;4.47;;;2.10;;
4601;SDS011;2313;48.552;9.370;2024-02-14T03:15:51;4.37;;;1.50;;
4601;SDS011;2313;48.552;9.370;2024-02-14T03:18:17;6.43;;;1.93;;
4601;SDS011;2313;48.552;9.370;2024-02-14T03:20:43;3.43;;;1.40;;
4601;SDS011;2313;48.552;9.370;2024-02-14T03:23:09;2.00;;;1.33;;
4601;SDS011;2313;48.552;9.370;2024-02-14T03:25:34;4.90;;;1.40;;
4601;SDS011;2313;48.552;9.370;2024-02-14T03:28:01;5.03;;;1.30;;
4601;SDS011;2313;48.552;9.370;2024-02-14T03:30:33;3.27;;;1.40;;
4601;SDS011;2313;48.552;9.370;2024-02-14T03:33:04;1.80;;;1.20;;
4601;SDS011;2313;48.552;9.370;2024-02-14T03:35:30;3.53;;;1.03;;
4601;SDS011;2313;48.552;9.370;2024-02-14T03:37:56;2.63;;;1.13;;
4601;SDS011;2313;48.552;9.370;2024-02-14T03:40:21;3.37;;;1.43;;
4601;SDS011;2313;48.552;9.370;2024-02-14T03:42:47;5.07;;;1.43;;
4601;SDS011;2313;48.552;9.370;2024-02-14T03:45:13;3.10;;;1.10;;
4601;SDS011;2313;48.552;9.370;2024-02-14T03:47:39;2.37;;;1.13;;
4601;SDS011;2313;48.552;9.370;2024-02-14T03:50:06;1.30;;;1.20;;
4601;SDS011;2313;48.552;9.370;2024-02-14T03:52:32;2.90;;;1.30;;
4601;SDS011;2313;48.552;9.370;2024-02-14T03:54:58;2.77;;;1.20;;
4601;SDS011;2313;48.552;9.370;2024-02-14T03:57:25;1.80;;;1.17;;
4601;SDS011;2313;48.552;9.370;2024-02-14T03:59:53;2.53;;;1.10;;
4601;SDS011;2313;48.552;9.370;2024-02-14T04:02:19;2.50;;;1.50;;
4601;SDS011;2313;48.552;9.370;2024-02-14T04:04:45;1.47;;;1.00;;
4601;SDS011;2313;48.552;9.370;2024-02-14T04:07:11;3.83;;;1.10;;
4601;SDS011;2313;48.552;9.370;2024-02-14T04:09:37;2.43;;;1.00;;
4601;SDS011;2313;48.552;9.370;2024-02-14T04:12:03;2.97;;;1.50;;
4601;SDS011;2313;48.552;9.370;2024-02-14T04:14:30;2.40;;;1.43;;
4601;SDS011;2313;48.552;9.370;2024-02-14T04:16:56;4.97;;;1.50;;
4601;SDS011;2313;48.552;9.370;2024-02-14T04:19:22;9.07;;;2.50;;
4601;SDS011;2313;48.552;9.370;2024-02-14T04:21:48;1.47;;;1.07;;
4601;SDS011;2313;48.552;9.370;2024-02-14T04:24:13;2.27;;;1.30;;
4601;SDS011;2313;48.552;9.370;2024-02-14T04:26:39;2.77;;;1.23;;
4601;SDS011;2313;48.552;9.370;2024-02-14T04:29:05;6.57;;;1.33;;
4601;SDS011;2313;48.552;9.370;2024-02-14T04:31:30;4.20;;;0.87;;
4601;SDS011;2313;48.552;9.370;2024-02-14T04:33:56;5.67;;;1.60;;
4601;SDS011;2313;48.552;9.370;2024-02-14T04:36:23;1.73;;;1.30;;
4601;SDS011;2313;48.552;9.370;2024-02-14T04:38:48;1.73;;;1.47;;
4601;SDS011;2313;48.552;9.370;2024-02-14T04:41:14;2.57;;;1.70;;
4601;SDS011;2313;48.552;9.370;2024-02-14T04:43:40;2.13;;;1.30;;
4601;SDS011;2313;48.552;9.370;2024-02-14T04:46:06;3.80;;;1.57;;
4601;SDS011;2313;48.552;9.370;2024-02-14T04:48:33;1.90;;;1.40;;
4601;SDS011;2313;48.552;9.370;2024-02-14T04:51:00;4.10;;;1.63;;
4601;SDS011;2313;48.552;9.370;2024-02-14T04:53:26;3.57;;;1.40;;
4601;SDS011;2313;48.552;9.370;2024-02-14T04:55:52;6.50;;;1.60;;
4601;SDS011;2313;48.552;9.370;2024-02-14T04:58:18;2.60;;;1.30;;
4601;SDS011;2313;48.552;9.370;2024-02-14T05:00:44;4.73;;;1.93;;
4601;SDS011;2313;48.552;9.370;2024-02-14T05:03:10;6.03;;;1.50;;
4601;SDS011;2313;48.552;9.370;2024-02-14T05:05:35;4.80;;;2.33;;
4601;SDS011;2313;48.552;9.370;2024-02-14T05:08:01;4.00;;;1.20;;
4601;SDS011;2313;48.552;9.370;2024-02-14T05:10:30;2.63;;;1.30;;
4601;SDS011;2313;48.552;9.370;2024-02-14T05:12:57;7.83;;;3.60;;
4601;SDS011;2313;48.552;9.370;2024-02-14T05:15:23;16.37;;;9.00;;
4601;SDS011;2313;48.552;9.370;2024-02-14T05:17:48;9.80;;;5.07;;
4601;SDS011;2313;48.552;9.370;2024-02-14T05:20:15;9.50;;;6.00;;
4601;SDS011;2313;48.552;9.370;2024-02-14T05:22:43;8.13;;;5.33;;
4601;SDS011;2313;48.552;9.370;2024-02-14T05:25:09;7.97;;;5.27;;
4601;SDS011;2313;48.552;9.370;2024-02-14T05:27:35;5.80;;;5.20;;
4601;SDS011;2313;48.552;9.370;2024-02-14T05:30:02;8.30;;;5.10;;
4601;SDS011;2313;48.552;9.370;2024-02-14T05:32:32;6.90;;;5.00;;
4601;SDS011;2313;48.552;9.370;2024-02-14T05:34:58;9.20;;;4.83;;
4601;SDS011;2313;48.552;9.370;2024-02-14T05:37:24;7.20;;;4.17;;
4601;SDS011;2313;48.552;9.370;2024-02-14T05:39:52;5.30;;;4.30;;
4601;SDS011;2313;48.552;9.370;2024-02-14T05:42:18;7.80;;;4.77;;
4601;SDS011;2313;48.552;9.370;2024-02-14T05:44:44;8.80;;;4.27;;
4601;SDS011;2313;48.552;9.370;2024-02-14T05:47:09;8.67;;;4.30;;
4601;SDS011;2313;48.552;9.370;2024-02-14T05:49:38;8.10;;;4.23;;
4601;SDS011;2313;48.552;9.370;2024-02-14T05:52:04;7.80;;;4.93;;
4601;SDS011;2313;48.552;9.370;2024-02-14T05:54:29;6.43;;;3.60;;
4601;SDS011;2313;48.552;9.370;2024-02-14T05:56:55;5.93;;;4.40;;
4601;SDS011;2313;48.552;9.370;2024-02-14T05:59:22;5.70;;;4.17;;
4601;SDS011;2313;48.552;9.370;2024-02-14T06:01:48;6.83;;;3.70;;
4601;SDS011;2313;48.552;9.370;2024-02-14T06:04:14;6.37;;;3.87;;
4601;SDS011;2313;48.552;9.370;2024-02-14T06:06:39;3.80;;;2.40;;
4601;SDS011;2313;48.552;9.370;2024-02-14T06:09:05;3.40;;;2.00;;
4601;SDS011;2313;48.552;9.370;2024-02-14T06:11:35;3.80;;;1.47;;
4601;SDS011;2313;48.552;9.370;2024-02-14T06:14:03;3.53;;;1.17;;
4601;SDS011;2313;48.552;9.370;2024-02-14T06:16:33;2.30;;;1.00;;
4601;SDS011;2313;48.552;9.370;2024-02-14T06:18:59;1.20;;;0.73;;
4601;SDS011;2313;48.552;9.370;2024-02-14T06:21:25;1.60;;;0.90;;
4601;SDS011;2313;48.552;9.370;2024-02-14T06:23:52;1.87;;;1.03;;
4601;SDS011;2313;48.552;9.370;2024-02-14T06:26:18;3.70;;;1.00;;
4601;SDS011;2313;48.552;9.370;2024-02-14T06:28:46;1.63;;;0.80;;
4601;SDS011;2313;48.552;9.370;2024-02-14T06:31:12;2.30;;;0.90;;
4601;SDS011;2313;48.552;9.370;2024-02-14T06:33:37;1.30;;;0.80;;
4601;SDS011;2313;48.552;9.370;2024-02-14T06:36:03;3.70;;;1.27;;
4601;SDS011;2313;48.552;9.370;2024-02-14T06:38:31;6.27;;;1.00;;
4601;SDS011;2313;48.552;9.370;2024-02-14T06:40:56;4.93;;;1.00;;
4601;SDS011;2313;48.552;9.370;2024-02-14T06:43:22;2.43;;;1.17;;
4601;SDS011;2313;48.552;9.370;2024-02-14T06:45:48;6.37;;;1.93;;
4601;SDS011;2313;48.552;9.370;2024-02-14T06:48:13;7.60;;;4.70;;
4601;SDS011;2313;48.552;9.370;2024-02-14T06:50:39;5.53;;;4.00;;
4601;SDS011;2313;48.552;9.370;2024-02-14T06:53:04;10.50;;;4.87;;
4601;SDS011;2313;48.552;9.370;2024-02-14T06:55:30;4.93;;;4.13;;
4601;SDS011;2313;48.552;9.370;2024-02-14T06:57:57;14.17;;;4.80;;
4601;SDS011;2313;48.552;9.370;2024-02-14T07:00:23;8.70;;;5.60;;
4601;SDS011;2313;48.552;9.370;2024-02-14T07:02:49;6.70;;;4.57;;
4601;SDS011;2313;48.552;9.370;2024-02-14T07:05:14;8.00;;;4.77;;
4601;SDS011;2313;48.552;9.370;2024-02-14T07:07:40;7.83;;;4.97;;
4601;SDS011;2313;48.552;9.370;2024-02-14T07:10:06;8.50;;;4.77;;
4601;SDS011;2313;48.552;9.370;2024-02-14T07:12:33;6.13;;;4.67;;
4601;SDS011;2313;48.552;9.370;2024-02-14T07:14:58;7.67;;;4.93;;
4601;SDS011;2313;48.552;9.370;2024-02-14T07:17:24;6.50;;;4.50;;
4601;SDS011;2313;48.552;9.370;2024-02-14T07:19:49;5.83;;;4.23;;
4601;SDS011;2313;48.552;9.370;2024-02-14T07:22:15;10.90;;;5.17;;
4601;SDS011;2313;48.552;9.370;2024-02-14T07:24:44;7.30;;;4.37;;
4601;SDS011;2313;48.552;9.370;2024-02-14T07:27:13;8.60;;;3.90;;
4601;SDS011;2313;48.552;9.370;2024-02-14T07:29:39;10.17;;;4.03;;
4601;SDS011;2313;48.552;9.370;2024-02-14T07:32:05;9.40;;;3.80;;
4601;SDS011;2313;48.552;9.370;2024-02-14T07:34:31;5.10;;;3.30;;
4601;SDS011;2313;48.552;9.370;2024-02-14T07:36:57;7.23;;;3.60;;
4601;SDS011;2313;48.552;9.370;2024-02-14T07:39:23;4.10;;;3.70;;
4601;SDS011;2313;48.552;9.370;2024-02-14T07:41:48;8.50;;;3.30;;
4601;SDS011;2313;48.552;9.370;2024-02-14T07:44:14;3.73;;;2.50;;
4601;SDS011;2313;48.552;9.370;2024-02-14T07:46:40;5.90;;;1.30;;
4601;SDS011;2313;48.552;9.370;2024-02-14T07:49:05;2.37;;;1.10;;
4601;SDS011;2313;48.552;9.370;2024-02-14T07:51:31;1.57;;;0.90;;
4601;SDS011;2313;48.552;9.370;2024-02-14T07:54:02;2.67;;;1.10;;
4601;SDS011;2313;48.552;9.370;2024-02-14T07:56:29;1.50;;;1.10;;
4601;SDS011;2313;48.552;9.370;2024-02-14T07:58:54;2.40;;;1.00;;
4601;SDS011;2313;48.552;9.370;2024-02-14T08:01:20;2.57;;;1.03;;
4601;SDS011;2313;48.552;9.370;2024-02-14T08:03:45;1.47;;;0.97;;
4601;SDS011;2313;48.552;9.370;2024-02-14T08:06:11;1.40;;;1.03;;
4601;SDS011;2313;48.552;9.370;2024-02-14T08:08:37;4.43;;;0.93;;
4601;SDS011;2313;48.552;9.370;2024-02-14T08:11:03;2.40;;;1.10;;
4601;SDS011;2313;48.552;9.370;2024-02-14T08:13:29;1.83;;;0.77;;
4601;SDS011;2313;48.552;9.370;2024-02-14T08:15:55;3.57;;;1.20;;
4601;SDS011;2313;48.552;9.370;2024-02-14T08:18:20;2.07;;;1.07;;
4601;SDS011;2313;48.552;9.370;2024-02-14T08:20:46;3.10;;;1.20;;
4601;SDS011;2313;48.552;9.370;2024-02-14T08:23:12;1.20;;;0.93;;
4601;SDS011;2313;48.552;9.370;2024-02-14T08:25:37;1.67;;;1.20;;
4601;SDS011;2313;48.552;9.370;2024-02-14T08:28:03;4.20;;;0.83;;
4601;SDS011;2313;48.552;9.370;2024-02-14T08:30:29;2.63;;;0.90;;
4601;SDS011;2313;48.552;9.370;2024-02-14T08:32:54;1.90;;;1.00;;
4601;SDS011;2313;48.552;9.370;2024-02-14T08:35:20;1.80;;;1.00;;
4601;SDS011;2313;48.552;9.370;2024-02-14T08:37:46;3.83;;;0.90;;
4601;SDS011;2313;48.552;9.370;2024-02-14T08:40:12;10.53;;;1.80;;
4601;SDS011;2313;48.552;9.370;2024-02-14T08:42:37;3.10;;;0.97;;
4601;SDS011;2313;48.552;9.370;2024-02-14T08:45:04;2.37;;;0.90;;
4601;SDS011;2313;48.552;9.370;2024-02-14T08:47:29;2.43;;;1.03;;
4601;SDS011;2313;48.552;9.370;2024-02-14T08:49:55;1.83;;;1.37;;
4601;SDS011;2313;48.552;9.370;2024-02-14T08:52:21;1.93;;;1.20;;
4601;SDS011;2313;48.552;9.370;2024-02-14T08:54:46;3.90;;;1.17;;
4601;SDS011;2313;48.552;9.370;2024-02-14T08:57:12;3.40;;;1.00;;
4601;SDS011;2313;48.552;9.370;2024-02-14T08:59:38;1.93;;;1.10;;
4601;SDS011;2313;48.552;9.370;2024-02-14T09:02:03;2.13;;;1.07;;
4601;SDS011;2313;48.552;9.370;2024-02-14T09:04:29;1.57;;;0.97;;
4601;SDS011;2313;48.552;9.370;2024-02-14T09:06:55;3.23;;;1.20;;
4601;SDS011;2313;48.552;9.370;2024-02-14T09:09:21;1.33;;;0.90;;
4601;SDS011;2313;48.552;9.370;2024-02-14T09:11:47;2.40;;;0.90;;
4601;SDS011;2313;48.552;9.370;2024-02-14T09:14:12;3.47;;;0.93;;
4601;SDS011;2313;48.552;9.370;2024-02-14T09:16:38;4.20;;;1.20;;
4601;SDS011;2313;48.552;9.370;2024-02-14T09:19:04;3.63;;;0.80;;
4601;SDS011;2313;48.552;9.370;2024-02-14T09:21:32;3.30;;;1.27;;
4601;SDS011;2313;48.552;9.370;2024-02-14T09:24:00;6.60;;;0.97;;
4601;SDS011;2313;48.552;9.370;2024-02-14T09:26:26;4.40;;;1.20;;
4601;SDS011;2313;48.552;9.370;2024-02-14T09:28:52;3.43;;;1.10;;
4601;SDS011;2313;48.552;9.370;2024-02-14T09:31:18;1.57;;;1.00;;
4601;SDS011;2313;48.552;9.370;2024-02-14T09:33:45;0.90;;;0.80;;
4601;SDS011;2313;48.552;9.370;2024-02-14T09:36:12;2.60;;;1.10;;
4601;SDS011;2313;48.552;9.370;2024-02-14T09:38:39;1.30;;;0.90;;
4601;SDS011;2313;48.552;9.370;2024-02-14T09:41:06;1.53;;;0.97;;
4601;SDS011;2313;48.552;9.370;2024-02-14T09:43:52;1.83;;;1.13;;
4601;SDS011;2313;48.552;9.370;2024-02-14T09:46:17;2.10;;;1.20;;
4601;SDS011;2313;48.552;9.370;2024-02-14T09:48:43;1.77;;;1.00;;
4601;SDS011;2313;48.552;9.370;2024-02-14T09:51:10;1.50;;;1.00;;
4601;SDS011;2313;48.552;9.370;2024-02-14T09:53:37;1.10;;;1.00;;
4601;SDS011;2313;48.552;9.370;2024-02-14T09:56:04;4.03;;;1.00;;
4601;SDS011;2313;48.552;9.370;2024-02-14T09:58:31;2.07;;;1.00;;
4601;SDS011;2313;48.552;9.370;2024-02-14T10:00:57;3.07;;;1.10;;
4601;SDS011;2313;48.552;9.370;2024-02-14T10:03:22;4.00;;;1.10;;
4601;SDS011;2313;48.552;9.370;2024-02-14T10:05:48;2.23;;;1.40;;
4601;SDS011;2313;48.552;9.370;2024-02-14T10:08:14;2.70;;;1.30;;
4601;SDS011;2313;48.552;9.370;2024-02-14T10:10:40;1.83;;;1.23;;
4601;SDS011;2313;48.552;9.370;2024-02-14T10:13:05;2.63;;;1.53;;
4601;SDS011;2313;48.552;9.370;2024-02-14T10:15:32;2.83;;;1.23;;
4601;SDS011;2313;48.552;9.370;2024-02-14T10:17:58;1.67;;;1.57;;
4601;SDS011;2313;48.552;9.370;2024-02-14T10:20:24;4.17;;;0.97;;
4601;SDS011;2313;48.552;9.370;2024-02-14T10:22:51;1.33;;;0.97;;
4601;SDS011;2313;48.552;9.370;2024-02-14T10:25:25;2.83;;;1.43;;
4601;SDS011;2313;48.552;9.370;2024-02-14T10:27:51;2.57;;;1.30;;
4601;SDS011;2313;48.552;9.370;2024-02-14T10:30:16;2.40;;;1.30;;
4601;SDS011;2313;48.552;9.370;2024-02-14T10:32:42;1.80;;;1.17;;
4601;SDS011;2313;48.552;9.370;2024-02-14T10:35:12;2.20;;;1.13;;
4601;SDS011;2313;48.552;9.370;2024-02-14T10:37:38;2.60;;;1.60;;
4601;SDS011;2313;48.552;9.370;2024-02-14T10:40:05;1.47;;;1.20;;
4601;SDS011;2313;48.552;9.370;2024-02-14T10:42:31;6.33;;;1.13;;
4601;SDS011;2313;48.552;9.370;2024-02-14T10:44:57;1.97;;;1.27;;
4601;SDS011;2313;48.552;9.370;2024-02-14T10:47:24;3.40;;;1.27;;
4601;SDS011;2313;48.552;9.370;2024-02-14T10:49:57;1.67;;;1.33;;
4601;SDS011;2313;48.552;9.370;2024-02-14T10:52:31;2.57;;;1.23;;
4601;SDS011;2313;48.552;9.370;2024-02-14T10:54:59;1.57;;;1.10;;
4601;SDS011;2313;48.552;9.370;2024-02-14T10:57:27;2.93;;;1.60;;
4601;SDS011;2313;48.552;9.370;2024-02-14T10:59:54;2.57;;;1.37;;
4601;SDS011;2313;48.552;9.370;2024-02-14T11:02:20;2.17;;;1.17;;
4601;SDS011;2313;48.552;9.370;2024-02-14T11:04:48;1.20;;;1.07;;
4601;SDS011;2313;48.552;9.370;2024-02-14T11:07:18;1.33;;;1.00;;
4601;SDS011;2313;48.552;9.370;2024-02-14T11:09:45;2.60;;;0.90;;
4601;SDS011;2313;48.552;9.370;2024-02-14T11:12:11;5.07;;;1.20;;
4601;SDS011;2313;48.552;9.370;2024-02-14T11:14:37;1.70;;;1.00;;
4601;SDS011;2313;48.552;9.370;2024-02-14T11:17:09;6.90;;;1.70;;
4601;SDS011;2313;48.552;9.370;2024-02-14T11:19:35;1.27;;;1.10;;
4601;SDS011;2313;48.552;9.370;2024-02-14T11:22:11;1.77;;;0.80;;
4601;SDS011;2313;48.552;9.370;2024-02-14T11:24:38;1.00;;;0.90;;
4601;SDS011;2313;48.552;9.370;2024-02-14T11:27:09;1.67;;;0.83;;
4601;SDS011;2313;48.552;9.370;2024-02-14T11:29:38;1.37;;;0.83;;
4601;SDS011;2313;48.552;9.370;2024-02-14T11:32:16;0.90;;;0.70;;
4601;SDS011;2313;48.552;9.370;2024-02-14T11:34:43;1.87;;;0.90;;
4601;SDS011;2313;48.552;9.370;2024-02-14T11:37:30;2.40;;;0.70;;
4601;SDS011;2313;48.552;9.370;2024-02-14T11:39:56;1.63;;;0.90;;
4601;SDS011;2313;48.552;9.370;2024-02-14T11:42:23;2.00;;;1.07;;
4601;SDS011;2313;48.552;9.370;2024-02-14T11:44:49;1.83;;;1.07;;
4601;SDS011;2313;48.552;9.370;2024-02-14T11:47:15;1.43;;;0.60;;
4601;SDS011;2313;48.552;9.370;2024-02-14T11:49:41;1.87;;;0.90;;
4601;SDS011;2313;48.552;9.370;2024-02-14T11:52:10;0.90;;;0.60;;
4601;SDS011;2313;48.552;9.370;2024-02-14T11:54:37;2.90;;;0.80;;
4601;SDS011;2313;48.552;9.370;2024-02-14T11:57:03;0.90;;;0.60;;
4601;SDS011;2313;48.552;9.370;2024-02-14T11:59:28;2.20;;;0.70;;
4601;SDS011;2313;48.552;9.370;2024-02-14T12:01:54;0.80;;;0.70;;
4601;SDS011;2313;48.552;9.370;2024-02-14T12:04:23;1.10;;;0.63;;
4601;SDS011;2313;48.552;9.370;2024-02-14T12:06:49;0.80;;;0.60;;
4601;SDS011;2313;48.552;9.370;2024-02-14T12:09:15;1.00;;;0.60;;
4601;SDS011;2313;48.552;9.370;2024-02-14T12:11:41;1.40;;;0.57;;
4601;SDS011;2313;48.552;9.370;2024-02-14T12:14:11;1.07;;;0.60;;
4601;SDS011;2313;48.552;9.370;2024-02-14T12:16:37;1.67;;;0.70;;
4601;SDS011;2313;48.552;9.370;2024-02-14T12:19:05;1.20;;;0.83;;
4601;SDS011;2313;48.552;9.370;2024-02-14T12:21:37;1.27;;;0.73;;
4601;SDS011;2313;48.552;9.370;2024-02-14T12:24:06;1.47;;;0.70;;
4601;SDS011;2313;48.552;9.370;2024-02-14T12:26:32;1.47;;;0.80;;
4601;SDS011;2313;48.552;9.370;2024-02-14T12:29:02;1.33;;;0.50;;
4601;SDS011;2313;48.552;9.370;2024-02-14T12:31:29;1.00;;;0.60;;
4601;SDS011;2313;48.552;9.370;2024-02-14T12:33:56;2.80;;;0.70;;
4601;SDS011;2313;48.552;9.370;2024-02-14T12:36:27;1.87;;;0.70;;
4601;SDS011;2313;48.552;9.370;2024-02-14T12:38:57;1.60;;;0.80;;
4601;SDS011;2313;48.552;9.370;2024-02-14T12:41:23;1.10;;;0.73;;
4601;SDS011;2313;48.552;9.370;2024-02-14T12:43:51;1.23;;;0.63;;
4601;SDS011;2313;48.552;9.370;2024-02-14T12:46:17;3.43;;;0.90;;
4601;SDS011;2313;48.552;9.370;2024-02-14T12:48:43;1.23;;;0.70;;
4601;SDS011;2313;48.552;9.370;2024-02-14T12:51:09;0.97;;;0.53;;
4601;SDS011;2313;48.552;9.370;2024-02-14T12:53:35;1.00;;;0.50;;
4601;SDS011;2313;48.552;9.370;2024-02-14T12:56:01;1.00;;;0.53;;
4601;SDS011;2313;48.552;9.370;2024-02-14T12:58:27;1.10;;;0.80;;
4601;SDS011;2313;48.552;9.370;2024-02-14T13:00:53;1.30;;;0.60;;
4601;SDS011;2313;48.552;9.370;2024-02-14T13:03:19;0.97;;;0.50;;
4601;SDS011;2313;48.552;9.370;2024-02-14T13:05:47;0.70;;;0.40;;
4601;SDS011;2313;48.552;9.370;2024-02-14T13:08:13;0.90;;;0.50;;
4601;SDS011;2313;48.552;9.370;2024-02-14T13:10:39;0.80;;;0.53;;
4601;SDS011;2313;48.552;9.370;2024-02-14T13:13:05;1.10;;;0.60;;
4601;SDS011;2313;48.552;9.370;2024-02-14T13:15:30;1.67;;;0.50;;
4601;SDS011;2313;48.552;9.370;2024-02-14T13:17:56;0.90;;;0.70;;
4601;SDS011;2313;48.552;9.370;2024-02-14T13:20:24;2.40;;;0.60;;
4601;SDS011;2313;48.552;9.370;2024-02-14T13:22:50;1.00;;;0.50;;
4601;SDS011;2313;48.552;9.370;2024-02-14T13:25:15;3.93;;;0.70;;
4601;SDS011;2313;48.552;9.370;2024-02-14T13:27:42;3.00;;;0.50;;
4601;SDS011;2313;48.552;9.370;2024-02-14T13:30:09;2.20;;;0.60;;
4601;SDS011;2313;48.552;9.370;2024-02-14T13:32:35;1.43;;;0.60;;
4601;SDS011;2313;48.552;9.370;2024-02-14T13:35:01;14.47;;;4.30;;
4601;SDS011;2313;48.552;9.370;2024-02-14T13:37:27;1.53;;;0.60;;
4601;SDS011;2313;48.552;9.370;2024-02-14T13:39:52;1.00;;;0.60;;
4601;SDS011;2313;48.552;9.370;2024-02-14T13:42:18;5.17;;;0.50;;
4601;SDS011;2313;48.552;9.370;2024-02-14T13:44:44;1.10;;;0.63;;
4601;SDS011;2313;48.552;9.370;2024-02-14T13:47:09;0.80;;;0.50;;
4601;SDS011;2313;48.552;9.370;2024-02-14T13:49:35;1.83;;;0.60;;
4601;SDS011;2313;48.552;9.370;2024-02-14T13:52:01;1.30;;;0.80;;
4601;SDS011;2313;48.552;9.370;2024-02-14T13:54:26;3.50;;;0.50;;
4601;SDS011;2313;48.552;9.370;2024-02-14T13:56:52;0.80;;;0.50;;
4601;SDS011;2313;48.552;9.370;2024-02-14T13:59:17;0.80;;;0.60;;
4601;SDS011;2313;48.552;9.370;2024-02-14T14:01:44;1.30;;;0.77;;
4601;SDS011;2313;48.552;9.370;2024-02-14T14:04:11;1.37;;;0.60;;
4601;SDS011;2313;48.552;9.370;2024-02-14T14:06:37;3.03;;;0.50;;
4601;SDS011;2313;48.552;9.370;2024-02-14T14:09:04;2.70;;;1.00;;
4601;SDS011;2313;48.552;9.370;2024-02-14T14:11:32;1.83;;;0.60;;
4601;SDS011;2313;48.552;9.370;2024-02-14T14:13:58;1.30;;;0.53;;
4601;SDS011;2313;48.552;9.370;2024-02-14T14:16:25;0.80;;;0.50;;
4601;SDS011;2313;48.552;9.370;2024-02-14T14:18:50;1.20;;;0.70;;
4601;SDS011;2313;48.552;9.370;2024-02-14T14:21:16;1.47;;;0.50;;
4601;SDS011;2313;48.552;9.370;2024-02-14T14:23:42;1.00;;;0.40;;
4601;SDS011;2313;48.552;9.370;2024-02-14T14:26:09;1.03;;;0.50;;
4601;SDS011;2313;48.552;9.370;2024-02-14T14:28:35;4.10;;;0.80;;
4601;SDS011;2313;48.552;9.370;2024-02-14T14:31:00;0.80;;;0.57;;
4601;SDS011;2313;48.552;9.370;2024-02-14T14:33:27;2.70;;;0.73;;
4601;SDS011;2313;48.552;9.370;2024-02-14T14:35:53;0.90;;;0.50;;
4601;SDS011;2313;48.552;9.370;2024-02-14T14:38:19;0.90;;;0.50;;
4601;SDS011;2313;48.552;9.370;2024-02-14T14:40:47;1.47;;;0.70;;
4601;SDS011;2313;48.552;9.370;2024-02-14T14:43:13;1.97;;;0.70;;
4601;SDS011;2313;48.552;9.370;2024-02-14T14:45:39;2.20;;;0.57;;
4601;SDS011;2313;48.552;9.370;2024-02-14T14:48:06;0.80;;;0.53;;
4601;SDS011;2313;48.552;9.370;2024-02-14T14:50:34;1.30;;;0.50;;
4601;SDS011;2313;48.552;9.370;2024-02-14T14:53:00;1.10;;;0.80;;
4601;SDS011;2313;48.552;9.370;2024-02-14T14:55:27;1.30;;;0.60;;
4601;SDS011;2313;48.552;9.370;2024-02-14T14:58:18;1.17;;;0.90;;
4601;SDS011;2313;48.552;9.370;2024-02-14T15:00:44;0.80;;;0.50;;
4601;SDS011;2313;48.552;9.370;2024-02-14T15:03:10;1.40;;;0.70;;
4601;SDS011;2313;48.552;9.370;2024-02-14T15:05:37;1.00;;;0.50;;
4601;SDS011;2313;48.552;9.370;2024-02-14T15:08:04;1.00;;;0.50;;
4601;SDS011;2313;48.552;9.370;2024-02-14T15:10:32;1.10;;;0.60;;